sensor_id;sensor_type;location;lat;lon;timestamp;pressure;altitude;pressure_sealevel;temperature;humidity
55263;BME280;41125;48.752;9.168;2024-01-30T00:00:00;98094.75;;;6.07;64.24
55263;BME280;41125;48.752;9.168;2024-01-30T00:00:32;98100.16;;;6.07;64.48
55263;BME280;41125;48.752;9.168;2024-01-30T00:01:04;98099.34;;;6.06;64.33
55263;BME280;41125;48.752;9.168;2024-01-30T00:01:35;98098.50;;;6.05;64.55
55263;BME280;41125;48.752;9.168;2024-01-30T00:02:06;98096.63;;;6.06;64.42
55263;BME280;41125;48.752;9.168;2024-01-30T00:02:37;98092.31;;;6.05;64.40
55263;BME280;41125;48.752;9.168;2024-01-30T00:03:09;98092.53;;;6.03;64.71
55263;BME280;41125;48.752;9.168;2024-01-30T00:03:41;98091.94;;;6.01;64.97
55263;BME280;41125;48.752;9.168;2024-01-30T00:04:12;98098.38;;;6.00;64.90
55263;BME280;41125;48.752;9.168;2024-01-30T00:04:43;98095.94;;;5.99;64.94
55263;BME280;41125;48.752;9.168;2024-01-30T00:05:15;98090.78;;;5.97;65.52
55263;BME280;41125;48.752;9.168;2024-01-30T00:05:46;98098.25;;;5.95;64.98
55263;BME280;41125;48.752;9.168;2024-01-30T00:06:24;98094.97;;;5.93;65.82
55263;BME280;41125;48.752;9.168;2024-01-30T00:06:58;98103.28;;;5.92;65.97
55263;BME280;41125;48.752;9.168;2024-01-30T00:07:30;98096.72;;;5.88;65.95
55263;BME280;41125;48.752;9.168;2024-01-30T00:08:01;98099.66;;;5.86;65.56
55263;BME280;41125;48.752;9.168;2024-01-30T00:08:32;98098.00;;;5.85;66.59
55263;BME280;41125;48.752;9.168;2024-01-30T00:09:04;98109.25;;;5.82;66.77
55263;BME280;41125;48.752;9.168;2024-01-30T00:09:38;98103.28;;;5.80;66.19
55263;BME280;41125;48.752;9.168;2024-01-30T00:10:12;98104.31;;;5.79;66.87
55263;BME280;41125;48.752;9.168;2024-01-30T00:10:43;98099.41;;;5.76;66.60
55263;BME280;41125;48.752;9.168;2024-01-30T00:11:15;98103.16;;;5.75;66.72
55263;BME280;41125;48.752;9.168;2024-01-30T00:11:47;98106.91;;;5.74;66.63
55263;BME280;41125;48.752;9.168;2024-01-30T00:12:18;98103.59;;;5.72;66.85
55263;BME280;41125;48.752;9.168;2024-01-30T00:12:50;98101.97;;;5.71;66.71
55263;BME280;41125;48.752;9.168;2024-01-30T00:13:21;98104.06;;;5.69;66.90
55263;BME280;41125;48.752;9.168;2024-01-30T00:13:53;98107.81;;;5.68;66.92
55263;BME280;41125;48.752;9.168;2024-01-30T00:14:26;98100.78;;;5.67;66.84
55263;BME280;41125;48.752;9.168;2024-01-30T00:14:57;98104.53;;;5.66;66.85
55263;BME280;41125;48.752;9.168;2024-01-30T00:15:28;98102.87;;;5.65;66.75
55263;BME280;41125;48.752;9.168;2024-01-30T00:16:00;98108.28;;;5.65;66.95
55263;BME280;41125;48.752;9.168;2024-01-30T00:16:31;98101.25;;;5.64;66.97
55263;BME280;41125;48.752;9.168;2024-01-30T00:17:03;98102.87;;;5.65;66.96
55263;BME280;41125;48.752;9.168;2024-01-30T00:17:36;98108.28;;;5.65;67.08
55263;BME280;41125;48.752;9.168;2024-01-30T00:18:07;98110.37;;;5.63;67.10
55263;BME280;41125;48.752;9.168;2024-01-30T00:18:39;98101.72;;;5.61;66.94
55263;BME280;41125;48.752;9.168;2024-01-30T00:19:10;98100.66;;;5.62;66.85
55263;BME280;41125;48.752;9.168;2024-01-30T00:19:41;98100.66;;;5.62;67.07
55263;BME280;41125;48.752;9.168;2024-01-30T00:20:12;98101.72;;;5.61;67.01
55263;BME280;41125;48.752;9.168;2024-01-30T00:20:44;98103.59;;;5.60;66.92
55263;BME280;41125;48.752;9.168;2024-01-30T00:21:15;98103.59;;;5.60;67.44
55263;BME280;41125;48.752;9.168;2024-01-30T00:21:46;98102.16;;;5.58;67.59
55263;BME280;41125;48.752;9.168;2024-01-30T00:22:17;98100.28;;;5.58;67.10
55263;BME280;41125;48.752;9.168;2024-01-30T00:22:49;98105.69;;;5.58;67.14
55263;BME280;41125;48.752;9.168;2024-01-30T00:23:20;98101.94;;;5.59;66.76
55263;BME280;41125;48.752;9.168;2024-01-30T00:23:52;98100.28;;;5.58;67.34
55263;BME280;41125;48.752;9.168;2024-01-30T00:24:23;98098.44;;;5.59;66.73
55263;BME280;41125;48.752;9.168;2024-01-30T00:24:56;98101.13;;;5.59;67.25
55263;BME280;41125;48.752;9.168;2024-01-30T00:25:27;98103.81;;;5.59;66.87
55263;BME280;41125;48.752;9.168;2024-01-30T00:25:59;98099.25;;;5.59;67.18
55263;BME280;41125;48.752;9.168;2024-01-30T00:26:31;98100.06;;;5.60;66.95
55263;BME280;41125;48.752;9.168;2024-01-30T00:27:05;98106.28;;;5.60;67.00
55263;BME280;41125;48.752;9.168;2024-01-30T00:27:36;98101.72;;;5.61;66.98
55263;BME280;41125;48.752;9.168;2024-01-30T00:28:07;98104.41;;;5.61;67.10
55263;BME280;41125;48.752;9.168;2024-01-30T00:28:38;98103.34;;;5.62;66.85
55263;BME280;41125;48.752;9.168;2024-01-30T00:29:09;98101.47;;;5.62;67.07
55263;BME280;41125;48.752;9.168;2024-01-30T00:29:41;98105.00;;;5.63;66.71
55263;BME280;41125;48.752;9.168;2024-01-30T00:30:13;98101.25;;;5.64;66.94
55263;BME280;41125;48.752;9.168;2024-01-30T00:30:45;98103.13;;;5.63;66.37
55263;BME280;41125;48.752;9.168;2024-01-30T00:31:16;98098.56;;;5.64;66.51
55263;BME280;41125;48.752;9.168;2024-01-30T00:31:47;98101.25;;;5.64;66.28
55263;BME280;41125;48.752;9.168;2024-01-30T00:32:22;98093.75;;;5.66;66.40
55263;BME280;41125;48.752;9.168;2024-01-30T00:32:54;98092.94;;;5.65;66.60
55263;BME280;41125;48.752;9.168;2024-01-30T00:33:25;98107.00;;;5.67;66.80
55263;BME280;41125;48.752;9.168;2024-01-30T00:34:00;98104.06;;;5.69;66.50
55263;BME280;41125;48.752;9.168;2024-01-30T00:34:31;98103.03;;;5.70;66.95
55263;BME280;41125;48.752;9.168;2024-01-30T00:35:04;98104.91;;;5.69;66.78
55263;BME280;41125;48.752;9.168;2024-01-30T00:35:35;98101.38;;;5.69;66.51
55263;BME280;41125;48.752;9.168;2024-01-30T00:36:08;98105.72;;;5.70;66.91
55263;BME280;41125;48.752;9.168;2024-01-30T00:36:40;98100.31;;;5.70;66.93
55263;BME280;41125;48.752;9.168;2024-01-30T00:37:11;98104.66;;;5.71;66.69
55263;BME280;41125;48.752;9.168;2024-01-30T00:37:42;98104.91;;;5.69;66.48
55263;BME280;41125;48.752;9.168;2024-01-30T00:38:14;98103.25;;;5.68;66.96
55263;BME280;41125;48.752;9.168;2024-01-30T00:38:45;98100.78;;;5.67;66.61
55263;BME280;41125;48.752;9.168;2024-01-30T00:39:16;98105.34;;;5.66;66.96
55263;BME280;41125;48.752;9.168;2024-01-30T00:39:50;98104.53;;;5.66;67.01
55263;BME280;41125;48.752;9.168;2024-01-30T00:40:22;98101.84;;;5.66;67.10
55263;BME280;41125;48.752;9.168;2024-01-30T00:40:53;98102.06;;;5.64;67.62
55263;BME280;41125;48.752;9.168;2024-01-30T00:41:24;98106.62;;;5.64;67.91
55263;BME280;41125;48.752;9.168;2024-01-30T00:41:55;98107.09;;;5.61;67.59
55263;BME280;41125;48.752;9.168;2024-01-30T00:42:26;98105.44;;;5.60;67.96
55263;BME280;41125;48.752;9.168;2024-01-30T00:43:00;98111.28;;;5.57;68.30
55263;BME280;41125;48.752;9.168;2024-01-30T00:43:31;98113.41;;;5.55;68.74
55263;BME280;41125;48.752;9.168;2024-01-30T00:44:03;98116.59;;;5.52;68.89
55263;BME280;41125;48.752;9.168;2024-01-30T00:44:35;98110.59;;;5.50;68.83
55263;BME280;41125;48.752;9.168;2024-01-30T00:45:15;98122.41;;;5.49;68.81
55263;BME280;41125;48.752;9.168;2024-01-30T00:45:47;98109.19;;;5.47;68.60
55263;BME280;41125;48.752;9.168;2024-01-30T00:46:18;98117.03;;;5.49;68.67
55263;BME280;41125;48.752;9.168;2024-01-30T00:46:50;98117.03;;;5.49;68.56
55263;BME280;41125;48.752;9.168;2024-01-30T00:47:21;98110.59;;;5.50;68.78
55263;BME280;41125;48.752;9.168;2024-01-30T00:47:52;98109.78;;;5.49;68.57
55263;BME280;41125;48.752;9.168;2024-01-30T00:48:24;98108.16;;;5.48;68.71
55263;BME280;41125;48.752;9.168;2024-01-30T00:48:55;98103.56;;;5.49;68.62
55263;BME280;41125;48.752;9.168;2024-01-30T00:49:26;98117.03;;;5.49;69.65
55263;BME280;41125;48.752;9.168;2024-01-30T00:49:58;98116.44;;;5.47;68.89
55263;BME280;41125;48.752;9.168;2024-01-30T00:50:29;98116.44;;;5.47;68.70
55263;BME280;41125;48.752;9.168;2024-01-30T00:51:00;98113.75;;;5.47;68.78
55263;BME280;41125;48.752;9.168;2024-01-30T00:51:31;98115.41;;;5.48;68.88
55263;BME280;41125;48.752;9.168;2024-01-30T00:52:03;98112.69;;;5.48;68.99
55263;BME280;41125;48.752;9.168;2024-01-30T00:52:35;98112.94;;;5.46;68.82
55263;BME280;41125;48.752;9.168;2024-01-30T00:53:07;98117.03;;;5.49;68.70
55263;BME280;41125;48.752;9.168;2024-01-30T00:53:39;98118.09;;;5.48;68.72
55263;BME280;41125;48.752;9.168;2024-01-30T00:54:14;98111.66;;;5.49;68.41
55263;BME280;41125;48.752;9.168;2024-01-30T00:54:46;98108.97;;;5.49;69.00
55263;BME280;41125;48.752;9.168;2024-01-30T00:55:18;98114.94;;;5.51;68.59
55263;BME280;41125;48.752;9.168;2024-01-30T00:55:49;98113.28;;;5.50;68.54
55263;BME280;41125;48.752;9.168;2024-01-30T00:56:21;98109.56;;;5.51;68.96
55263;BME280;41125;48.752;9.168;2024-01-30T00:56:52;98106.84;;;5.51;68.42
55263;BME280;41125;48.752;9.168;2024-01-30T00:57:23;98108.50;;;5.52;68.61
55263;BME280;41125;48.752;9.168;2024-01-30T00:57:54;98109.31;;;5.52;68.57
55263;BME280;41125;48.752;9.168;2024-01-30T00:58:26;98108.28;;;5.53;68.77
55263;BME280;41125;48.752;9.168;2024-01-30T00:58:57;98109.31;;;5.52;68.71
55263;BME280;41125;48.752;9.168;2024-01-30T00:59:28;98101.03;;;5.54;68.35
55263;BME280;41125;48.752;9.168;2024-01-30T01:00:00;98101.03;;;5.54;68.50
55263;BME280;41125;48.752;9.168;2024-01-30T01:00:32;98099.94;;;5.55;68.19
55263;BME280;41125;48.752;9.168;2024-01-30T01:01:04;98098.88;;;5.56;68.14
55263;BME280;41125;48.752;9.168;2024-01-30T01:01:35;98102.16;;;5.58;67.88
55263;BME280;41125;48.752;9.168;2024-01-30T01:02:09;98104.63;;;5.59;67.71
55263;BME280;41125;48.752;9.168;2024-01-30T01:02:40;98101.72;;;5.61;67.85
55263;BME280;41125;48.752;9.168;2024-01-30T01:03:11;98097.97;;;5.62;67.71
55263;BME280;41125;48.752;9.168;2024-01-30T01:03:42;98099.59;;;5.63;67.23
55263;BME280;41125;48.752;9.168;2024-01-30T01:04:15;98103.72;;;5.65;67.38
55263;BME280;41125;48.752;9.168;2024-01-30T01:04:46;98099.16;;;5.66;67.09
55263;BME280;41125;48.752;9.168;2024-01-30T01:05:17;98106.19;;;5.67;67.25
55263;BME280;41125;48.752;9.168;2024-01-30T01:05:49;98100.31;;;5.70;67.00
55263;BME280;41125;48.752;9.168;2024-01-30T01:06:20;98099.28;;;5.71;67.17
55263;BME280;41125;48.752;9.168;2024-01-30T01:06:51;98099.03;;;5.72;67.07
55263;BME280;41125;48.752;9.168;2024-01-30T01:07:25;98101.50;;;5.74;67.18
55263;BME280;41125;48.752;9.168;2024-01-30T01:08:00;98105.84;;;5.75;66.94
55263;BME280;41125;48.752;9.168;2024-01-30T01:08:31;98104.78;;;5.76;66.99
55263;BME280;41125;48.752;9.168;2024-01-30T01:09:03;98103.75;;;5.77;66.88
55263;BME280;41125;48.752;9.168;2024-01-30T01:09:35;98100.81;;;5.79;66.47
55263;BME280;41125;48.752;9.168;2024-01-30T01:10:10;98105.97;;;5.80;66.84
55263;BME280;41125;48.752;9.168;2024-01-30T01:10:44;98101.63;;;5.79;66.91
55263;BME280;41125;48.752;9.168;2024-01-30T01:11:17;98105.97;;;5.80;66.64
55263;BME280;41125;48.752;9.168;2024-01-30T01:11:48;98105.97;;;5.80;66.84
55263;BME280;41125;48.752;9.168;2024-01-30T01:12:19;98103.28;;;5.80;66.94
55263;BME280;41125;48.752;9.168;2024-01-30T01:12:50;98111.34;;;5.80;66.72
55263;BME280;41125;48.752;9.168;2024-01-30T01:13:22;98104.09;;;5.81;66.56
55263;BME280;41125;48.752;9.168;2024-01-30T01:13:54;98101.16;;;5.82;66.82
55263;BME280;41125;48.752;9.168;2024-01-30T01:14:25;98101.16;;;5.82;66.43
55263;BME280;41125;48.752;9.168;2024-01-30T01:14:56;98107.16;;;5.84;66.53
55263;BME280;41125;48.752;9.168;2024-01-30T01:15:27;98107.97;;;5.85;66.50
55263;BME280;41125;48.752;9.168;2024-01-30T01:15:58;98102.59;;;5.85;66.70
55263;BME280;41125;48.752;9.168;2024-01-30T01:16:29;98103.41;;;5.85;66.72
55263;BME280;41125;48.752;9.168;2024-01-30T01:17:01;98109.59;;;5.86;66.62
55263;BME280;41125;48.752;9.168;2024-01-30T01:17:33;98101.53;;;5.86;66.39
55263;BME280;41125;48.752;9.168;2024-01-30T01:18:04;98106.09;;;5.85;66.68
55263;BME280;41125;48.752;9.168;2024-01-30T01:18:35;98098.00;;;5.85;66.30
55263;BME280;41125;48.752;9.168;2024-01-30T01:19:07;98101.75;;;5.84;66.42
55263;BME280;41125;48.752;9.168;2024-01-30T01:19:38;98107.16;;;5.84;66.64
55263;BME280;41125;48.752;9.168;2024-01-30T01:20:11;98100.94;;;5.84;66.65
55263;BME280;41125;48.752;9.168;2024-01-30T01:20:42;98099.31;;;5.83;66.50
55263;BME280;41125;48.752;9.168;2024-01-30T01:21:14;98104.69;;;5.83;66.77
55263;BME280;41125;48.752;9.168;2024-01-30T01:21:45;98109.25;;;5.82;66.46
55263;BME280;41125;48.752;9.168;2024-01-30T01:22:17;98105.50;;;5.83;66.56
55263;BME280;41125;48.752;9.168;2024-01-30T01:22:49;98101.75;;;5.84;66.43
55263;BME280;41125;48.752;9.168;2024-01-30T01:23:20;98100.72;;;5.85;66.51
55263;BME280;41125;48.752;9.168;2024-01-30T01:23:51;98101.75;;;5.84;66.38
55263;BME280;41125;48.752;9.168;2024-01-30T01:24:23;98102.81;;;5.83;66.31
55263;BME280;41125;48.752;9.168;2024-01-30T01:24:54;98097.19;;;5.85;66.38
55263;BME280;41125;48.752;9.168;2024-01-30T01:25:25;98097.44;;;5.83;66.50
55263;BME280;41125;48.752;9.168;2024-01-30T01:25:56;98094.72;;;5.83;66.45
55263;BME280;41125;48.752;9.168;2024-01-30T01:26:27;98100.12;;;5.83;66.64
55263;BME280;41125;48.752;9.168;2024-01-30T01:26:59;98096.84;;;5.81;66.44
55263;BME280;41125;48.752;9.168;2024-01-30T01:27:30;98091.44;;;5.81;66.64
55263;BME280;41125;48.752;9.168;2024-01-30T01:28:04;98096.25;;;5.79;66.74
55263;BME280;41125;48.752;9.168;2024-01-30T01:28:39;98098.13;;;5.79;66.61
55263;BME280;41125;48.752;9.168;2024-01-30T01:29:13;98098.34;;;5.77;66.79
55263;BME280;41125;48.752;9.168;2024-01-30T01:29:47;98099.41;;;5.76;67.12
55263;BME280;41125;48.752;9.168;2024-01-30T01:30:19;98100.44;;;5.75;67.29
55263;BME280;41125;48.752;9.168;2024-01-30T01:30:52;98101.50;;;5.74;67.08
55263;BME280;41125;48.752;9.168;2024-01-30T01:31:24;98101.97;;;5.71;67.60
55263;BME280;41125;48.752;9.168;2024-01-30T01:31:56;98098.69;;;5.69;67.47
55263;BME280;41125;48.752;9.168;2024-01-30T01:32:28;98100.78;;;5.67;67.94
55263;BME280;41125;48.752;9.168;2024-01-30T01:33:04;98101.25;;;5.64;68.49
55263;BME280;41125;48.752;9.168;2024-01-30T01:33:40;98104.16;;;5.62;68.46
55263;BME280;41125;48.752;9.168;2024-01-30T01:34:14;98107.09;;;5.61;68.21
55263;BME280;41125;48.752;9.168;2024-01-30T01:34:45;98105.44;;;5.60;68.04
55263;BME280;41125;48.752;9.168;2024-01-30T01:35:17;98104.63;;;5.59;68.14
55263;BME280;41125;48.752;9.168;2024-01-30T01:35:48;98102.16;;;5.58;68.30
55263;BME280;41125;48.752;9.168;2024-01-30T01:36:20;98105.91;;;5.57;68.55
55263;BME280;41125;48.752;9.168;2024-01-30T01:36:52;98102.63;;;5.55;68.40
55263;BME280;41125;48.752;9.168;2024-01-30T01:37:26;98099.38;;;5.53;68.70
55263;BME280;41125;48.752;9.168;2024-01-30T01:37:57;98100.44;;;5.52;68.39
55263;BME280;41125;48.752;9.168;2024-01-30T01:38:31;98107.69;;;5.51;68.73
55263;BME280;41125;48.752;9.168;2024-01-30T01:39:03;98105.22;;;5.50;68.58
55263;BME280;41125;48.752;9.168;2024-01-30T01:39:34;98107.31;;;5.48;68.99
55263;BME280;41125;48.752;9.168;2024-01-30T01:40:07;98104.84;;;5.46;68.79
55263;BME280;41125;48.752;9.168;2024-01-30T01:40:39;98110.47;;;5.45;69.31
55263;BME280;41125;48.752;9.168;2024-01-30T01:41:10;98098.28;;;5.42;69.35
55263;BME280;41125;48.752;9.168;2024-01-30T01:41:47;98109.28;;;5.41;69.54
55263;BME280;41125;48.752;9.168;2024-01-30T01:42:18;98109.97;;;5.36;69.85
55263;BME280;41125;48.752;9.168;2024-01-30T01:42:53;98106.69;;;5.34;69.90
55263;BME280;41125;48.752;9.168;2024-01-30T01:43:24;98106.91;;;5.32;69.59
55263;BME280;41125;48.752;9.168;2024-01-30T01:43:56;98117.09;;;5.30;70.11
55263;BME280;41125;48.752;9.168;2024-01-30T01:44:28;98116.72;;;5.27;70.48
55263;BME280;41125;48.752;9.168;2024-01-30T01:45:03;98118.00;;;5.24;70.76
55263;BME280;41125;48.752;9.168;2024-01-30T01:45:35;98119.03;;;5.23;70.49
55263;BME280;41125;48.752;9.168;2024-01-30T01:46:07;98116.81;;;5.20;71.06
55263;BME280;41125;48.752;9.168;2024-01-30T01:46:41;98121.62;;;5.18;71.09
55263;BME280;41125;48.752;9.168;2024-01-30T01:47:12;98130.16;;;5.15;71.83
55263;BME280;41125;48.752;9.168;2024-01-30T01:47:44;98123.56;;;5.11;71.72
55263;BME280;41125;48.752;9.168;2024-01-30T01:48:20;98121.34;;;5.08;72.17
55263;BME280;41125;48.752;9.168;2024-01-30T01:48:55;98130.91;;;5.04;71.60
55263;BME280;41125;48.752;9.168;2024-01-30T01:49:33;98116.28;;;5.00;71.40
55263;BME280;41125;48.752;9.168;2024-01-30T01:50:05;98123.53;;;4.99;71.71
55263;BME280;41125;48.752;9.168;2024-01-30T01:50:37;98123.75;;;4.98;71.45
55263;BME280;41125;48.752;9.168;2024-01-30T01:51:09;98125.84;;;4.96;71.98
55263;BME280;41125;48.752;9.168;2024-01-30T01:51:41;98124.19;;;4.95;72.39
55263;BME280;41125;48.752;9.168;2024-01-30T01:52:13;98118.81;;;4.95;71.90
55263;BME280;41125;48.752;9.168;2024-01-30T01:52:48;98124.41;;;4.93;72.12
55263;BME280;41125;48.752;9.168;2024-01-30T01:53:20;98117.63;;;4.91;72.16
55263;BME280;41125;48.752;9.168;2024-01-30T01:53:51;98121.38;;;4.90;72.02
55263;BME280;41125;48.752;9.168;2024-01-30T01:54:24;98126.75;;;4.90;71.97
55263;BME280;41125;48.752;9.168;2024-01-30T01:54:56;98125.09;;;4.89;71.91
55263;BME280;41125;48.752;9.168;2024-01-30T01:55:29;98121.59;;;4.88;72.03
55263;BME280;41125;48.752;9.168;2024-01-30T01:56:02;98123.44;;;4.88;72.31
55263;BME280;41125;48.752;9.168;2024-01-30T01:56:34;98122.62;;;4.87;71.96
55263;BME280;41125;48.752;9.168;2024-01-30T01:57:06;98125.53;;;4.86;72.51
55263;BME280;41125;48.752;9.168;2024-01-30T01:57:38;98133.63;;;4.86;72.37
55263;BME280;41125;48.752;9.168;2024-01-30T01:58:10;98131.19;;;4.84;73.42
55263;BME280;41125;48.752;9.168;2024-01-30T01:58:45;98126.84;;;4.83;73.05
55263;BME280;41125;48.752;9.168;2024-01-30T01:59:18;98129.75;;;4.82;73.11
55263;BME280;41125;48.752;9.168;2024-01-30T01:59:50;98125.44;;;4.81;72.82
55263;BME280;41125;48.752;9.168;2024-01-30T02:00:22;98128.13;;;4.81;72.69
55263;BME280;41125;48.752;9.168;2024-01-30T02:00:53;98129.16;;;4.80;72.69
55263;BME280;41125;48.752;9.168;2024-01-30T02:01:25;98124.84;;;4.79;73.19
55263;BME280;41125;48.752;9.168;2024-01-30T02:01:58;98124.84;;;4.79;72.84
55263;BME280;41125;48.752;9.168;2024-01-30T02:02:31;98129.16;;;4.80;73.22
55263;BME280;41125;48.752;9.168;2024-01-30T02:03:08;98128.56;;;4.78;73.21
55263;BME280;41125;48.752;9.168;2024-01-30T02:03:40;98116.16;;;4.77;73.41
55263;BME280;41125;48.752;9.168;2024-01-30T02:04:12;98117.00;;;4.77;73.08
55263;BME280;41125;48.752;9.168;2024-01-30T02:04:44;98121.53;;;4.77;73.36
55263;BME280;41125;48.752;9.168;2024-01-30T02:05:17;98118.84;;;4.77;73.41
55263;BME280;41125;48.752;9.168;2024-01-30T02:05:50;98133.94;;;4.78;73.61
55263;BME280;41125;48.752;9.168;2024-01-30T02:06:23;98123.41;;;4.76;73.10
55263;BME280;41125;48.752;9.168;2024-01-30T02:06:54;98132.31;;;4.77;73.52
55263;BME280;41125;48.752;9.168;2024-01-30T02:07:27;98115.34;;;4.76;73.27
55263;BME280;41125;48.752;9.168;2024-01-30T02:07:58;98121.53;;;4.77;73.44
55263;BME280;41125;48.752;9.168;2024-01-30T02:08:30;98121.53;;;4.77;73.27
55263;BME280;41125;48.752;9.168;2024-01-30T02:09:01;98121.53;;;4.77;73.28
55263;BME280;41125;48.752;9.168;2024-01-30T02:09:33;98119.69;;;4.77;72.91
55263;BME280;41125;48.752;9.168;2024-01-30T02:10:05;98124.84;;;4.79;73.07
55263;BME280;41125;48.752;9.168;2024-01-30T02:10:36;98121.09;;;4.80;72.94
55263;BME280;41125;48.752;9.168;2024-01-30T02:11:11;98122.75;;;4.81;72.85
55263;BME280;41125;48.752;9.168;2024-01-30T02:11:46;98117.13;;;4.82;72.61
55263;BME280;41125;48.752;9.168;2024-01-30T02:12:17;98116.09;;;4.83;72.61
55263;BME280;41125;48.752;9.168;2024-01-30T02:12:49;98116.91;;;4.84;72.34
55263;BME280;41125;48.752;9.168;2024-01-30T02:13:21;98115.88;;;4.85;72.48
55263;BME280;41125;48.752;9.168;2024-01-30T02:13:53;98115.03;;;4.84;72.60
55263;BME280;41125;48.752;9.168;2024-01-30T02:14:24;98116.09;;;4.83;72.61
55263;BME280;41125;48.752;9.168;2024-01-30T02:14:55;98111.53;;;4.84;72.65
55263;BME280;41125;48.752;9.168;2024-01-30T02:15:27;98115.28;;;4.83;72.55
55263;BME280;41125;48.752;9.168;2024-01-30T02:16:00;98119.81;;;4.82;72.63
55263;BME280;41125;48.752;9.168;2024-01-30T02:16:32;98128.13;;;4.81;72.41
55263;BME280;41125;48.752;9.168;2024-01-30T02:17:04;98122.16;;;4.79;72.65
55263;BME280;41125;48.752;9.168;2024-01-30T02:17:35;98124.84;;;4.79;72.75
55263;BME280;41125;48.752;9.168;2024-01-30T02:18:07;98121.53;;;4.77;72.75
55263;BME280;41125;48.752;9.168;2024-01-30T02:18:38;98133.13;;;4.77;73.13
55263;BME280;41125;48.752;9.168;2024-01-30T02:19:14;98126.94;;;4.77;72.90
55263;BME280;41125;48.752;9.168;2024-01-30T02:19:45;98126.94;;;4.77;73.26
55263;BME280;41125;48.752;9.168;2024-01-30T02:20:16;98127.53;;;4.79;72.95
55263;BME280;41125;48.752;9.168;2024-01-30T02:20:48;98122.75;;;4.81;72.94
55263;BME280;41125;48.752;9.168;2024-01-30T02:21:19;98128.13;;;4.81;72.52
55263;BME280;41125;48.752;9.168;2024-01-30T02:21:52;98127.28;;;4.80;72.40
55263;BME280;41125;48.752;9.168;2024-01-30T02:22:26;98127.28;;;4.80;72.72
55263;BME280;41125;48.752;9.168;2024-01-30T02:22:59;98128.94;;;4.81;72.58
55263;BME280;41125;48.752;9.168;2024-01-30T02:23:33;98128.13;;;4.81;72.39
55263;BME280;41125;48.752;9.168;2024-01-30T02:24:05;98126.47;;;4.80;72.65
55263;BME280;41125;48.752;9.168;2024-01-30T02:24:37;98131.03;;;4.79;72.21
55263;BME280;41125;48.752;9.168;2024-01-30T02:25:08;98129.38;;;4.78;72.43
55263;BME280;41125;48.752;9.168;2024-01-30T02:25:40;98127.75;;;4.77;72.51
55263;BME280;41125;48.752;9.168;2024-01-30T02:26:19;98136.03;;;4.76;72.57
55263;BME280;41125;48.752;9.168;2024-01-30T02:26:50;98130.66;;;4.76;72.58
55263;BME280;41125;48.752;9.168;2024-01-30T02:27:23;98136.03;;;4.76;72.95
55263;BME280;41125;48.752;9.168;2024-01-30T02:27:54;98135.22;;;4.75;72.65
55263;BME280;41125;48.752;9.168;2024-01-30T02:28:25;98135.44;;;4.74;72.53
55263;BME280;41125;48.752;9.168;2024-01-30T02:28:57;98142.69;;;4.73;72.58
55263;BME280;41125;48.752;9.168;2024-01-30T02:29:28;98133.19;;;4.70;72.77
55263;BME280;41125;48.752;9.168;2024-01-30T02:29:59;98140.66;;;4.68;72.29
55263;BME280;41125;48.752;9.168;2024-01-30T02:30:30;98135.50;;;4.67;72.82
55263;BME280;41125;48.752;9.168;2024-01-30T02:31:02;98135.72;;;4.65;72.67
55263;BME280;41125;48.752;9.168;2024-01-30T02:31:33;98138.41;;;4.65;72.95
55263;BME280;41125;48.752;9.168;2024-01-30T02:32:05;98139.47;;;4.64;72.71
55263;BME280;41125;48.752;9.168;2024-01-30T02:32:37;98133.28;;;4.64;73.09
55263;BME280;41125;48.752;9.168;2024-01-30T02:33:10;98136.19;;;4.62;73.00
55263;BME280;41125;48.752;9.168;2024-01-30T02:33:42;98139.91;;;4.61;73.11
55263;BME280;41125;48.752;9.168;2024-01-30T02:34:13;98134.53;;;4.61;72.82
55263;BME280;41125;48.752;9.168;2024-01-30T02:34:45;98132.91;;;4.60;73.05
55263;BME280;41125;48.752;9.168;2024-01-30T02:35:16;98130.19;;;4.60;72.80
55263;BME280;41125;48.752;9.168;2024-01-30T02:35:48;98136.63;;;4.59;73.31
55263;BME280;41125;48.752;9.168;2024-01-30T02:36:19;98128.56;;;4.59;72.96
55263;BME280;41125;48.752;9.168;2024-01-30T02:36:50;98136.19;;;4.62;73.14
55263;BME280;41125;48.752;9.168;2024-01-30T02:37:23;98134.31;;;4.63;72.79
55263;BME280;41125;48.752;9.168;2024-01-30T02:37:54;98127.06;;;4.63;73.03
55263;BME280;41125;48.752;9.168;2024-01-30T02:38:28;98135.72;;;4.65;72.48
55263;BME280;41125;48.752;9.168;2024-01-30T02:39:00;98119.59;;;4.65;72.79
55263;BME280;41125;48.752;9.168;2024-01-30T02:39:31;98126.63;;;4.66;72.58
55263;BME280;41125;48.752;9.168;2024-01-30T02:40:03;98130.12;;;4.67;72.88
55263;BME280;41125;48.752;9.168;2024-01-30T02:40:34;98124.53;;;4.68;72.73
55263;BME280;41125;48.752;9.168;2024-01-30T02:41:05;98136.94;;;4.69;72.75
55263;BME280;41125;48.752;9.168;2024-01-30T02:41:38;98127.81;;;4.70;72.45
55263;BME280;41125;48.752;9.168;2024-01-30T02:42:10;98124.69;;;4.74;72.51
55263;BME280;41125;48.752;9.168;2024-01-30T02:42:41;98127.38;;;4.74;72.49
55263;BME280;41125;48.752;9.168;2024-01-30T02:43:13;98132.75;;;4.74;72.43
55263;BME280;41125;48.752;9.168;2024-01-30T02:43:44;98127.38;;;4.74;72.35
55263;BME280;41125;48.752;9.168;2024-01-30T02:44:18;98120.94;;;4.75;72.33
55263;BME280;41125;48.752;9.168;2024-01-30T02:44:57;98129.00;;;4.75;72.61
55263;BME280;41125;48.752;9.168;2024-01-30T02:45:29;98119.91;;;4.76;72.40
55263;BME280;41125;48.752;9.168;2024-01-30T02:46:00;98125.28;;;4.76;72.45
55263;BME280;41125;48.752;9.168;2024-01-30T02:46:31;98128.78;;;4.76;72.20
55263;BME280;41125;48.752;9.168;2024-01-30T02:47:04;98128.78;;;4.76;71.91
55263;BME280;41125;48.752;9.168;2024-01-30T02:47:35;98125.28;;;4.76;72.31
55263;BME280;41125;48.752;9.168;2024-01-30T02:48:07;98123.41;;;4.76;72.02
55263;BME280;41125;48.752;9.168;2024-01-30T02:48:39;98127.97;;;4.76;72.42
55263;BME280;41125;48.752;9.168;2024-01-30T02:49:10;98123.63;;;4.75;72.18
55263;BME280;41125;48.752;9.168;2024-01-30T02:49:41;98119.31;;;4.74;72.31
55263;BME280;41125;48.752;9.168;2024-01-30T02:50:12;98117.22;;;4.76;72.16
55263;BME280;41125;48.752;9.168;2024-01-30T02:50:45;98122.81;;;4.74;72.39
55263;BME280;41125;48.752;9.168;2024-01-30T02:51:21;98119.31;;;4.74;72.02
55263;BME280;41125;48.752;9.168;2024-01-30T02:51:54;98120.94;;;4.75;72.23